ENNA METAR and TAF weather

Enter ICAO airport designator
Station Type Date Time Source
ENNA METAR 2019/10/23 12:20 UTC NOAA

ENNA 231220Z 20005KT 4000 -SN BKN027 M01/M01 Q1001 RMK WIND 1800FT 16013KT


Station Type Date Time Source
ENNA Decoded METAR 2019/10/23 12:20 UTC NOAA

Banak, Norway (ENNA) 70-04N 024-59E 8M
Oct 23, 2019 - 08:20 AM EDT / 2019.10.23 1220 UTC
Wind: from the SSW (200 degrees) at 6 MPH (5 KT):0
Visibility: 2 mile(s):0
Sky conditions: mostly cloudy
Weather: light snow
Temperature: 30 F (-1 C)
Windchill: 23 F (-5 C):1
Dew Point: 30 F (-1 C)
Relative Humidity: 100%
Pressure (altimeter): 29.56 in. Hg (1001 hPa)
ob: ENNA 231220Z 20005KT 4000 -SN BKN027 M01/M01 Q1001 RMK WIND 1800FT 16013KT
cycle: 12

Station Type Date Time Source
ENNA TAF 2019/10/23 12:57 UTC NOAA

TAF TAF ENNA 231100Z 2312/2412 18008KT 9999 -SN FEW010 BKN020
TEMPO 2312/2403 2000 SN VV010
TEMPO 2318/2406 36010KT
TEMPO 2403/2408 BKN005

Example: see airport list